Ala Vuotunki, Suomi

21. heinäkuuta 2018 klo 11:09 (EEST) (GMT +0300)
Kuusamo | | Change Station

Kork 863 ft 65.97 °N, 29.18 °E | Updated 19 minutes ago

Sadetta
Sadetta
64 °F
Tuntuu kuin 64 °F
N
6
Tuuli Suunnaltaan vaihteleva Tuuli ilmansuunnasta Itä

Tänään
Korkea -- | Matala -- °F
--% Sateen mahd.
Eilen
Korkea -- | Matala -- °F
Precip. -- tuumaa
Ilmanpaine 29.89 tuumaa
Näkyvyys 6.2 mailia
Pilviä Harvoja pilviä 3300 ft
Harvoja pilviä 4200 ft
Täysin pilvistä 8500 ft
Kastepiste 63 °F
Ilmankosteus 94%
Sademäärä 0.00 tuumaa
Lumensyvyys Ei saatavilla
2:59 AM 11:14 PM
Kasvava kupera kuu, 65% visible
METAR EFKS 210750Z 10005KT 060V140 9999 SHRA FEW033CB FEW042CB OVC085 18/17 Q1012
Ilmanpaine 29.89 tuumaa
Näkyvyys 6.2 mailia
Pilviä Harvoja pilviä 3300 ft
Harvoja pilviä 4200 ft
Täysin pilvistä 8500 ft
Kastepiste 63 °F
Ilmankosteus 94%
Sademäärä 0.00 tuumaa
Lumensyvyys Ei saatavilla
2:59 AM 11:14 PM
Kasvava kupera kuu, 65% visible
METAR EFKS 210750Z 10005KT 060V140 9999 SHRA FEW033CB FEW042CB OVC085 18/17 Q1012

Get Severe Weather Alerts

Thanks for signing up!

Be on the lookout for a verification email in your inbox.

You'll start receiving the daily forecast at 6 AM.

×

10-Day Weather Forecast

×

Almanac

Tähtitiede

Jul. 21, 2018 Nousuaika Laskuaika
Valoisa aika
Porvarillinen hämärä
Nauttinen hämärä
Astronominen hämärä
Kuu
Näkyvän valon pituus
Päivän pituus
Tomorrow will be .
, % of the Moon is Illuminated

Tämän päivän ennätykset

Country Highs Country Lows

Community

WunderPhotos

Category 6

Welcome to Category 6. This is the collective home for Weather Underground's featured writeups by Dr. Jeff Masters (right), Bob Henson (left), Chris Burt, and other regular contributors.

Nearby

Ilmanlaatu

  Ilmanlaatu AQ Index Pollutant
Not available.

Lumensyvyys

Station Depth Korkeus

Maanjäristysaktiivisuus

Paikkakunta Distance Mag. Time & Date
Minimum magnitude displayed is 2.5.

Coastal Water Temperatures

Paikka Lämpötila

Stations

Lähimmät sääasemat

Aseman sijainti Lämpötila Tuulen hyytävyys Kastepiste Ilmankosteus Tuuli Precip. Kork Päivitetty Tyyppi